createdAt,value
2019-02-20T00:00:02.303Z,4.23
2019-02-20T00:01:10.358Z,4.18
2019-02-20T00:02:18.404Z,4.14
2019-02-20T00:03:27.869Z,4.22
2019-02-20T00:04:34.510Z,4.22
2019-02-20T00:05:42.569Z,4.16
2019-02-20T00:06:50.609Z,4.22
2019-02-20T00:07:58.680Z,4.24
2019-02-20T00:09:06.773Z,4.20
2019-02-20T00:10:14.800Z,4.16
2019-02-20T00:11:23.455Z,4.20
2019-02-20T00:12:31.505Z,4.18
2019-02-20T00:13:38.987Z,4.24
2019-02-20T00:14:47.009Z,4.20
2019-02-20T00:15:55.068Z,4.16
2019-02-20T00:17:03.125Z,4.16
2019-02-20T00:18:11.179Z,4.24
2019-02-20T00:19:20.287Z,4.20
2019-02-20T00:20:27.282Z,4.08
2019-02-20T00:21:35.357Z,4.12
2019-02-20T00:22:43.395Z,4.11
2019-02-20T00:23:51.451Z,4.15
2019-02-20T00:24:59.523Z,4.09
2019-02-20T00:26:07.593Z,4.12
2019-02-20T00:27:15.643Z,4.08
2019-02-20T00:28:23.680Z,4.11
2019-02-20T00:29:31.751Z,4.14
2019-02-20T00:30:39.807Z,4.12
2019-02-20T00:31:47.846Z,4.05
2019-02-20T00:32:55.906Z,4.08
2019-02-20T00:34:03.972Z,4.06
2019-02-20T00:35:12.009Z,4.11
2019-02-20T00:36:20.077Z,4.09
2019-02-20T00:37:28.122Z,4.12
2019-02-20T00:38:36.182Z,4.04
2019-02-20T00:39:44.231Z,4.14
2019-02-20T00:40:52.268Z,4.14
2019-02-20T00:42:00.380Z,4.11
2019-02-20T00:43:08.403Z,4.02
2019-02-20T00:44:16.486Z,3.97
2019-02-20T00:45:24.501Z,3.94
2019-02-20T00:46:32.548Z,3.96
2019-02-20T00:47:40.624Z,3.80
2019-02-20T00:48:48.723Z,3.79
2019-02-20T00:49:56.731Z,3.72
2019-02-20T00:51:04.778Z,3.72
2019-02-20T00:52:12.868Z,3.69
2019-02-20T00:53:20.890Z,3.69
2019-02-20T00:54:29.016Z,3.61
2019-02-20T00:55:37.017Z,3.48
2019-02-20T00:56:45.047Z,3.48
2019-02-20T00:57:53.122Z,3.35
2019-02-20T00:59:01.180Z,3.33
2019-02-20T01:00:09.233Z,3.26
2019-02-20T01:01:17.287Z,3.24
2019-02-20T01:02:25.311Z,3.13
2019-02-20T01:03:33.419Z,3.10
2019-02-20T01:04:41.489Z,2.87
2019-02-20T01:05:49.500Z,2.84
2019-02-20T01:06:57.577Z,2.81
2019-02-20T01:08:05.613Z,2.75
2019-02-20T01:09:13.676Z,2.69
2019-02-20T01:10:21.684Z,2.75
2019-02-20T01:11:29.819Z,2.79
2019-02-20T01:12:37.830Z,2.71
2019-02-20T01:13:45.890Z,2.71
2019-02-20T01:14:53.944Z,2.74
2019-02-20T01:16:01.996Z,2.63
2019-02-20T01:17:10.061Z,2.63
2019-02-20T01:18:18.104Z,2.59
2019-02-20T01:19:26.162Z,2.53
2019-02-20T01:20:34.218Z,2.57
2019-02-20T01:21:42.253Z,2.56
2019-02-20T01:22:59.364Z,2.49
2019-02-20T01:23:58.385Z,2.46
2019-02-20T01:25:06.420Z,2.34
2019-02-20T01:26:14.496Z,2.27
2019-02-20T01:27:22.545Z,2.21
2019-02-20T01:28:30.600Z,2.21
2019-02-20T01:29:38.634Z,2.21
2019-02-20T01:30:46.710Z,2.05
2019-02-20T01:31:54.758Z,2.05
2019-02-20T01:33:02.848Z,2.03
2019-02-20T01:34:10.855Z,2.12
2019-02-20T01:35:18.888Z,2.00
2019-02-20T01:36:26.984Z,1.87
2019-02-20T01:37:35.046Z,1.95
2019-02-20T01:38:43.084Z,2.05
2019-02-20T01:39:51.129Z,2.05
2019-02-20T01:40:59.210Z,1.98
2019-02-20T01:42:07.238Z,1.93
2019-02-20T01:43:15.321Z,1.87
2019-02-20T01:44:23.342Z,2.05
2019-02-20T01:45:31.400Z,1.99
2019-02-20T01:46:39.479Z,1.86
2019-02-20T01:47:47.508Z,1.98
2019-02-20T01:48:55.560Z,2.00
2019-02-20T01:50:03.627Z,1.99
2019-02-20T01:51:11.666Z,1.87
2019-02-20T01:52:19.721Z,1.88
2019-02-20T01:53:27.796Z,1.83
2019-02-20T01:54:35.865Z,1.80
2019-02-20T01:55:43.886Z,1.79
2019-02-20T01:56:51.943Z,1.77
2019-02-20T01:57:59.997Z,1.65
2019-02-20T01:59:08.064Z,1.70
2019-02-20T02:00:16.108Z,1.72
2019-02-20T02:01:24.178Z,1.68
2019-02-20T02:02:32.214Z,1.65
2019-02-20T02:03:40.282Z,1.58
2019-02-20T02:04:48.303Z,1.59
2019-02-20T02:05:56.381Z,1.66
2019-02-20T02:07:04.442Z,1.58
2019-02-20T02:08:12.483Z,1.48
2019-02-20T02:09:20.533Z,1.48
2019-02-20T02:10:28.581Z,1.48
2019-02-20T02:11:36.666Z,1.47
2019-02-20T02:12:44.709Z,1.50
2019-02-20T02:13:52.741Z,1.50
2019-02-20T02:15:00.833Z,1.42
2019-02-20T02:16:08.875Z,1.47
2019-02-20T02:17:16.915Z,1.55
2019-02-20T02:18:25.032Z,1.58
2019-02-20T02:19:33.022Z,1.62
2019-02-20T02:20:41.100Z,1.59
2019-02-20T02:21:49.138Z,1.59
2019-02-20T02:22:57.231Z,1.60
2019-02-20T02:24:05.238Z,1.63
2019-02-20T02:25:13.301Z,1.66
2019-02-20T02:26:21.328Z,1.68
2019-02-20T02:27:29.382Z,1.68
2019-02-20T02:28:37.506Z,1.60
2019-02-20T02:29:45.490Z,1.62
2019-02-20T02:30:53.584Z,1.59
2019-02-20T02:32:01.628Z,1.65
2019-02-20T02:33:09.678Z,1.59
2019-02-20T02:34:17.706Z,1.62
2019-02-20T02:35:25.781Z,1.52
2019-02-20T02:36:33.830Z,1.50
2019-02-20T02:37:41.879Z,1.50
2019-02-20T02:38:49.964Z,1.48
2019-02-20T02:39:57.996Z,1.52
2019-02-20T02:41:06.035Z,1.48
2019-02-20T02:42:14.104Z,1.51
2019-02-20T02:43:22.153Z,1.47
2019-02-20T02:44:30.240Z,1.54
2019-02-20T02:45:38.257Z,1.51
2019-02-20T02:46:46.307Z,1.60
2019-02-20T02:47:54.375Z,1.50
2019-02-20T02:49:02.411Z,1.62
2019-02-20T02:50:10.461Z,1.63
2019-02-20T02:51:18.568Z,1.72
2019-02-20T02:52:26.572Z,1.72
2019-02-20T02:53:34.640Z,1.80
2019-02-20T02:54:42.688Z,1.83
2019-02-20T02:55:50.767Z,1.81
2019-02-20T02:56:58.788Z,1.84
2019-02-20T02:58:06.854Z,1.90
2019-02-20T02:59:14.889Z,1.81
2019-02-20T03:00:22.958Z,1.87
2019-02-20T03:01:31.069Z,1.76
2019-02-20T03:02:39.097Z,1.80
2019-02-20T03:03:47.100Z,1.86
2019-02-20T03:04:55.191Z,1.88
2019-02-20T03:06:03.249Z,1.98
2019-02-20T03:07:11.266Z,1.93
2019-02-20T03:08:19.310Z,1.87
2019-02-20T03:09:27.394Z,1.90
2019-02-20T03:10:35.456Z,2.00
2019-02-20T03:11:43.480Z,1.95
2019-02-20T03:12:51.539Z,1.98
2019-02-20T03:13:59.596Z,2.00
2019-02-20T03:15:07.654Z,1.95
2019-02-20T03:16:15.697Z,2.06
2019-02-20T03:17:23.764Z,1.93
2019-02-20T03:18:31.801Z,1.93
2019-02-20T03:19:39.873Z,2.02
2019-02-20T03:20:47.923Z,1.83
2019-02-20T03:21:56.007Z,1.91
2019-02-20T03:23:04.049Z,1.80
2019-02-20T03:24:12.085Z,1.83
2019-02-20T03:25:20.122Z,1.77
2019-02-20T03:26:28.177Z,1.79
2019-02-20T03:27:36.269Z,1.84
2019-02-20T03:28:44.288Z,1.80
2019-02-20T03:29:52.320Z,1.83
2019-02-20T03:31:00.417Z,1.84
2019-02-20T03:32:08.485Z,1.81
2019-02-20T03:33:16.503Z,1.69
2019-02-20T03:34:24.556Z,1.69
2019-02-20T03:35:32.615Z,1.80
2019-02-20T03:36:40.672Z,1.81
2019-02-20T03:37:48.725Z,1.77
2019-02-20T03:38:56.784Z,1.76
2019-02-20T03:40:04.838Z,1.77
2019-02-20T03:41:12.892Z,1.80
2019-02-20T03:42:20.971Z,1.80
2019-02-20T03:43:28.995Z,1.83
2019-02-20T03:44:37.079Z,1.81
2019-02-20T03:45:45.114Z,1.88
2019-02-20T03:46:53.180Z,1.84
2019-02-20T03:48:01.201Z,1.87
2019-02-20T03:49:09.268Z,1.91
2019-02-20T03:50:17.322Z,1.86
2019-02-20T03:51:25.373Z,1.95
2019-02-20T03:52:33.422Z,2.03
2019-02-20T03:53:51.093Z,2.06
2019-02-20T03:54:49.539Z,2.00
2019-02-20T03:55:57.591Z,2.17
2019-02-20T03:57:05.637Z,2.17
2019-02-20T03:58:13.698Z,2.14
2019-02-20T03:59:21.764Z,2.20
2019-02-20T04:00:29.836Z,2.20
2019-02-20T04:01:37.857Z,2.16
2019-02-20T04:02:45.923Z,2.24
2019-02-20T04:03:53.982Z,2.25
2019-02-20T04:05:02.021Z,2.30
2019-02-20T04:06:10.074Z,2.21
2019-02-20T04:07:18.116Z,2.27
2019-02-20T04:08:26.179Z,2.24
2019-02-20T04:09:34.212Z,2.25
2019-02-20T04:10:42.349Z,2.25
2019-02-20T04:11:50.342Z,2.23
2019-02-20T04:12:58.381Z,2.21
2019-02-20T04:14:06.449Z,2.25
2019-02-20T04:15:14.642Z,2.41
2019-02-20T04:16:22.566Z,2.36
2019-02-20T04:17:30.611Z,2.35
2019-02-20T04:18:38.680Z,2.30
2019-02-20T04:19:46.712Z,2.27
2019-02-20T04:20:54.794Z,2.34
2019-02-20T04:22:02.853Z,2.39
2019-02-20T04:23:10.896Z,2.38
2019-02-20T04:24:19.293Z,2.36
2019-02-20T04:25:27.020Z,2.41
2019-02-20T04:26:35.086Z,2.46
2019-02-20T04:27:43.131Z,2.46
2019-02-20T04:28:51.176Z,2.54
2019-02-20T04:29:59.230Z,2.46
2019-02-20T04:31:07.283Z,2.41
2019-02-20T04:32:15.344Z,2.30
2019-02-20T04:33:23.400Z,2.38
2019-02-20T04:34:31.442Z,2.39
2019-02-20T04:35:39.512Z,2.28
2019-02-20T04:36:47.535Z,2.28
2019-02-20T04:37:55.598Z,2.23
2019-02-20T04:39:03.670Z,2.18
2019-02-20T04:40:11.703Z,2.14
2019-02-20T04:41:19.790Z,2.12
2019-02-20T04:42:27.924Z,2.07
2019-02-20T04:43:35.897Z,2.00
2019-02-20T04:44:43.943Z,2.03
2019-02-20T04:45:51.957Z,2.05
2019-02-20T04:47:00.118Z,2.02
2019-02-20T04:48:08.105Z,1.90
2019-02-20T04:49:16.127Z,2.02
2019-02-20T04:50:24.215Z,1.84
2019-02-20T04:51:32.223Z,1.84
2019-02-20T04:52:40.302Z,1.81
2019-02-20T04:53:48.389Z,1.83
2019-02-20T04:54:56.402Z,1.70
2019-02-20T04:56:04.476Z,1.60
2019-02-20T04:57:12.547Z,1.55
2019-02-20T04:58:20.568Z,1.50
2019-02-20T04:59:28.640Z,1.50
2019-02-20T05:00:36.694Z,1.50
2019-02-20T05:01:44.757Z,1.47
2019-02-20T05:02:52.829Z,1.41
2019-02-20T05:04:00.856Z,1.37
2019-02-20T05:05:08.902Z,1.40
2019-02-20T05:06:16.967Z,1.33
2019-02-20T05:07:25.005Z,1.22
2019-02-20T05:08:33.060Z,1.16
2019-02-20T05:09:41.145Z,1.29
2019-02-20T05:10:49.229Z,1.12
2019-02-20T05:11:57.215Z,1.14
2019-02-20T05:13:05.264Z,1.16
2019-02-20T05:14:13.317Z,1.15
2019-02-20T05:15:21.388Z,1.12
2019-02-20T05:16:30.282Z,1.08
2019-02-20T05:17:37.499Z,1.06
2019-02-20T05:18:45.557Z,1.06
2019-02-20T05:19:53.594Z,1.12
2019-02-20T05:21:01.652Z,1.11
2019-02-20T05:22:09.711Z,1.11
2019-02-20T05:23:17.766Z,1.12
2019-02-20T05:24:25.817Z,1.09
2019-02-20T05:25:33.857Z,1.15
2019-02-20T05:26:41.916Z,1.11
2019-02-20T05:27:49.977Z,1.15
2019-02-20T05:28:58.025Z,1.12
2019-02-20T05:30:06.094Z,1.15
2019-02-20T05:31:16.364Z,1.14
2019-02-20T05:32:22.167Z,1.12
2019-02-20T05:33:30.238Z,1.20
2019-02-20T05:34:38.293Z,1.12
2019-02-20T05:35:46.360Z,1.24
2019-02-20T05:36:54.400Z,1.14
2019-02-20T05:38:02.502Z,1.14
2019-02-20T05:39:10.508Z,1.15
2019-02-20T05:40:18.602Z,1.27
2019-02-20T05:41:26.616Z,1.24
2019-02-20T05:42:34.941Z,1.26
2019-02-20T05:43:42.913Z,1.27
2019-02-20T05:44:50.780Z,1.40
2019-02-20T05:45:58.819Z,1.34
2019-02-20T05:47:06.862Z,1.40
2019-02-20T05:48:14.978Z,1.41
2019-02-20T05:49:22.975Z,1.41
2019-02-20T05:50:31.195Z,1.41
2019-02-20T05:51:39.114Z,1.44
2019-02-20T05:52:47.160Z,1.45
2019-02-20T05:53:55.329Z,1.50
2019-02-20T05:55:03.267Z,1.55
2019-02-20T05:56:11.312Z,1.47
2019-02-20T05:57:19.481Z,1.54
2019-02-20T05:58:28.071Z,1.54
2019-02-20T05:59:36.067Z,1.63
2019-02-20T06:00:44.153Z,1.54
2019-02-20T06:01:51.545Z,1.51
2019-02-20T06:02:59.625Z,1.54
2019-02-20T06:04:07.714Z,1.55
2019-02-20T06:05:15.725Z,1.55
2019-02-20T06:06:23.851Z,1.47
2019-02-20T06:07:31.850Z,1.45
2019-02-20T06:08:39.913Z,1.51
2019-02-20T06:09:47.948Z,1.51
2019-02-20T06:10:56.009Z,1.51
2019-02-20T06:12:04.062Z,1.58
2019-02-20T06:13:12.146Z,1.63
2019-02-20T06:14:20.179Z,1.65
2019-02-20T06:15:28.204Z,1.60
2019-02-20T06:16:36.294Z,1.63
2019-02-20T06:17:44.349Z,1.68
2019-02-20T06:18:52.376Z,1.70
2019-02-20T06:20:00.460Z,1.69
2019-02-20T06:21:08.496Z,1.72
2019-02-20T06:22:16.551Z,1.70
2019-02-20T06:23:24.599Z,1.76
2019-02-20T06:24:32.679Z,1.70
2019-02-20T06:25:40.720Z,1.83
2019-02-20T06:26:48.755Z,1.80
2019-02-20T06:27:56.815Z,1.80
2019-02-20T06:29:04.876Z,1.77
2019-02-20T06:30:12.930Z,1.76
2019-02-20T06:31:20.979Z,1.81
2019-02-20T06:32:29.037Z,1.80
2019-02-20T06:33:37.084Z,1.79
2019-02-20T06:34:45.143Z,1.79
2019-02-20T06:35:53.180Z,1.84
2019-02-20T06:37:01.273Z,1.84
2019-02-20T06:38:10.911Z,1.79
2019-02-20T06:39:17.343Z,1.79
2019-02-20T06:40:25.394Z,1.80
2019-02-20T06:41:38.900Z,1.83
2019-02-20T06:42:41.520Z,1.80
2019-02-20T06:43:49.614Z,1.86
2019-02-20T06:44:57.605Z,1.77
2019-02-20T06:46:05.684Z,1.84
2019-02-20T06:47:13.722Z,1.86
2019-02-20T06:48:21.771Z,1.87
2019-02-20T06:49:29.835Z,1.93
2019-02-20T06:50:37.892Z,1.95
2019-02-20T06:51:45.939Z,1.95
2019-02-20T06:52:54.019Z,2.03
2019-02-20T06:54:02.081Z,1.95
2019-02-20T06:55:10.102Z,1.91
2019-02-20T06:56:18.157Z,1.91
2019-02-20T06:57:26.206Z,2.00
2019-02-20T06:58:34.303Z,1.91
2019-02-20T06:59:42.325Z,2.03
2019-02-20T07:00:50.393Z,2.06
2019-02-20T07:01:58.441Z,2.07
2019-02-20T07:03:06.501Z,2.05
2019-02-20T07:04:14.569Z,2.17
2019-02-20T07:05:22.575Z,2.17
2019-02-20T07:06:30.667Z,2.27
2019-02-20T07:07:38.726Z,2.20
2019-02-20T07:08:46.787Z,2.24
2019-02-20T07:09:54.851Z,2.25
2019-02-20T07:11:02.906Z,2.30
2019-02-20T07:12:10.937Z,2.36
2019-02-20T07:13:18.982Z,2.38
2019-02-20T07:14:27.030Z,2.46
2019-02-20T07:15:35.101Z,2.49
2019-02-20T07:16:43.190Z,2.46
2019-02-20T07:17:51.231Z,2.48
2019-02-20T07:18:59.278Z,2.48
2019-02-20T07:20:07.310Z,2.57
2019-02-20T07:21:15.370Z,2.52
2019-02-20T07:22:23.414Z,2.60
2019-02-20T07:23:31.483Z,2.63
2019-02-20T07:24:39.525Z,2.74
2019-02-20T07:25:47.590Z,2.71
2019-02-20T07:26:55.645Z,2.69
2019-02-20T07:28:03.690Z,2.72
2019-02-20T07:29:11.740Z,2.79
2019-02-20T07:30:19.810Z,2.77
2019-02-20T07:31:27.885Z,2.81
2019-02-20T07:32:35.922Z,2.82
2019-02-20T07:33:43.994Z,2.87
2019-02-20T07:34:52.042Z,2.93
2019-02-20T07:36:00.090Z,2.87
2019-02-20T07:37:08.159Z,3.03
2019-02-20T07:38:16.205Z,3.08
2019-02-20T07:39:24.260Z,3.15
2019-02-20T07:40:32.429Z,3.11
2019-02-20T07:41:40.403Z,3.21
2019-02-20T07:42:48.414Z,3.18
2019-02-20T07:43:56.470Z,3.15
2019-02-20T07:45:04.533Z,3.35
2019-02-20T07:46:12.764Z,3.40
2019-02-20T07:47:20.676Z,3.35
2019-02-20T07:48:28.701Z,3.35
2019-02-20T07:49:36.819Z,3.39
2019-02-20T07:50:44.823Z,3.50
2019-02-20T07:51:52.882Z,3.55
2019-02-20T07:53:00.911Z,3.52
2019-02-20T07:54:08.993Z,3.55
2019-02-20T07:55:17.038Z,3.72
2019-02-20T07:56:25.074Z,3.73
2019-02-20T07:57:33.170Z,3.80
2019-02-20T07:58:41.183Z,3.88
2019-02-20T07:59:49.243Z,3.90
2019-02-20T08:00:57.309Z,3.94
2019-02-20T08:02:05.377Z,3.96
2019-02-20T08:03:13.398Z,3.98
2019-02-20T08:04:21.464Z,4.04
2019-02-20T08:05:29.509Z,4.12
2019-02-20T08:06:37.662Z,4.11
2019-02-20T08:07:45.667Z,4.22
2019-02-20T08:08:53.700Z,4.16
2019-02-20T08:10:01.776Z,4.33
2019-02-20T08:11:09.824Z,4.45
2019-02-20T08:12:17.898Z,4.52
2019-02-20T08:13:25.933Z,4.59
2019-02-20T08:14:34.000Z,4.70
2019-02-20T08:15:42.054Z,4.75
2019-02-20T08:16:52.411Z,4.82
2019-02-20T08:17:58.178Z,4.94
2019-02-20T08:19:06.191Z,5.07
2019-02-20T08:20:14.291Z,5.22
2019-02-20T08:21:22.328Z,5.20
2019-02-20T08:22:30.351Z,5.27
2019-02-20T08:23:38.427Z,5.54
2019-02-20T08:24:46.483Z,5.49
2019-02-20T08:25:54.563Z,5.72
2019-02-20T08:27:02.580Z,5.78
2019-02-20T08:28:10.650Z,5.94
2019-02-20T08:29:18.744Z,6.08
2019-02-20T08:30:26.956Z,6.30
2019-02-20T08:31:34.880Z,6.38
2019-02-20T08:32:42.924Z,6.56
2019-02-20T08:33:50.939Z,6.70
2019-02-20T08:34:59.027Z,6.88
2019-02-20T08:36:07.088Z,6.99
2019-02-20T08:37:15.134Z,7.15
2019-02-20T08:38:23.210Z,7.24
2019-02-20T08:39:31.226Z,7.37
2019-02-20T08:40:39.286Z,7.34
2019-02-20T08:41:47.385Z,7.45
2019-02-20T08:42:55.402Z,7.50
2019-02-20T08:44:03.522Z,7.52
2019-02-20T08:45:11.566Z,7.60
2019-02-20T08:46:19.575Z,7.74
2019-02-20T08:47:27.681Z,7.58
2019-02-20T08:48:35.735Z,7.80
2019-02-20T08:49:43.769Z,7.80
2019-02-20T08:50:51.790Z,7.86
2019-02-20T08:51:59.890Z,7.97
2019-02-20T08:53:07.988Z,8.01
2019-02-20T08:54:15.995Z,8.08
2019-02-20T08:55:31.700Z,8.15
2019-02-20T08:56:32.169Z,8.12
2019-02-20T08:57:40.162Z,8.30
2019-02-20T08:58:48.292Z,8.28
2019-02-20T08:59:56.297Z,8.34
2019-02-20T09:01:04.347Z,8.36
2019-02-20T09:02:12.418Z,8.48
2019-02-20T09:03:20.506Z,8.56
2019-02-20T09:04:28.631Z,8.47
2019-02-20T09:05:36.612Z,8.52
2019-02-20T09:06:44.685Z,8.47
2019-02-20T09:07:52.703Z,8.58
2019-02-20T09:09:00.795Z,8.61
2019-02-20T09:10:08.835Z,8.66
2019-02-20T09:11:16.893Z,8.63
2019-02-20T09:12:25.018Z,8.62
2019-02-20T09:13:33.046Z,8.58
2019-02-20T09:14:41.072Z,8.58
2019-02-20T09:15:49.129Z,8.41
2019-02-20T09:16:57.199Z,8.62
2019-02-20T09:18:05.304Z,8.59
2019-02-20T09:19:13.341Z,8.77
2019-02-20T09:20:21.404Z,8.92
2019-02-20T09:21:29.442Z,9.04
2019-02-20T09:22:38.980Z,9.05
2019-02-20T09:23:45.572Z,9.02
2019-02-20T09:24:53.582Z,9.17
2019-02-20T09:26:01.700Z,9.23
2019-02-20T09:27:09.769Z,9.32
2019-02-20T09:28:17.791Z,9.50
2019-02-20T09:29:25.857Z,9.50
2019-02-20T09:30:33.905Z,9.61
2019-02-20T09:31:41.980Z,9.66
2019-02-20T09:32:50.029Z,9.64
2019-02-20T09:33:58.088Z,9.58
2019-02-20T09:35:06.185Z,9.58
2019-02-20T09:36:14.204Z,9.66
2019-02-20T09:37:22.278Z,9.74
2019-02-20T09:38:30.331Z,9.74
2019-02-20T09:39:38.383Z,9.83
2019-02-20T09:40:46.476Z,9.86
2019-02-20T09:41:54.480Z,9.87
2019-02-20T09:43:02.559Z,9.99
2019-02-20T09:44:10.614Z,10.05
2019-02-20T09:45:18.714Z,9.96
2019-02-20T09:46:26.777Z,9.97
2019-02-20T09:47:34.808Z,10.04
2019-02-20T09:48:42.865Z,9.97
2019-02-20T09:49:50.939Z,10.09
2019-02-20T09:50:59.047Z,10.15
2019-02-20T09:52:07.082Z,10.11
2019-02-20T09:53:15.125Z,10.11
2019-02-20T09:54:23.193Z,10.22
2019-02-20T09:55:31.215Z,10.20
2019-02-20T09:56:39.327Z,10.15
2019-02-20T09:57:47.327Z,10.18
2019-02-20T09:58:55.454Z,10.26
2019-02-20T10:00:03.510Z,10.18
2019-02-20T10:01:11.566Z,10.25
2019-02-20T10:02:19.582Z,10.22
2019-02-20T10:03:27.684Z,10.32
2019-02-20T10:04:35.703Z,10.36
2019-02-20T10:05:43.744Z,10.45
2019-02-20T10:06:51.828Z,10.42
2019-02-20T10:07:59.894Z,10.41
2019-02-20T10:09:07.971Z,10.27
2019-02-20T10:10:16.008Z,10.29
2019-02-20T10:11:24.080Z,10.25
2019-02-20T10:12:32.153Z,10.29
2019-02-20T10:13:40.199Z,10.33
2019-02-20T10:14:48.248Z,10.33
2019-02-20T10:15:56.312Z,10.27
2019-02-20T10:17:04.393Z,10.44
2019-02-20T10:18:12.447Z,10.47
2019-02-20T10:19:20.497Z,10.60
2019-02-20T10:20:28.576Z,10.52
2019-02-20T10:21:36.594Z,10.56
2019-02-20T10:22:44.688Z,10.63
2019-02-20T10:23:52.762Z,10.70
2019-02-20T10:25:00.808Z,10.66
2019-02-20T10:26:08.923Z,10.71
2019-02-20T10:27:16.966Z,10.78
2019-02-20T10:28:24.972Z,10.79
2019-02-20T10:29:33.011Z,10.84
2019-02-20T10:30:41.121Z,10.79
2019-02-20T10:31:49.251Z,10.89
2019-02-20T10:32:57.206Z,10.82
2019-02-20T10:34:05.257Z,10.91
2019-02-20T10:35:13.333Z,10.91
2019-02-20T10:36:21.381Z,10.92
2019-02-20T10:37:29.435Z,10.92
2019-02-20T10:38:37.550Z,10.89
2019-02-20T10:39:45.588Z,10.97
2019-02-20T10:40:53.642Z,10.92
2019-02-20T10:42:01.687Z,10.96
2019-02-20T10:43:09.799Z,10.97
2019-02-20T10:44:17.816Z,11.10
2019-02-20T10:45:25.907Z,11.02
2019-02-20T10:46:33.949Z,11.06
2019-02-20T10:47:42.031Z,11.02
2019-02-20T10:48:50.070Z,11.02
2019-02-20T10:49:58.129Z,11.06
2019-02-20T10:51:06.173Z,11.09
2019-02-20T10:52:14.210Z,11.22
2019-02-20T10:53:22.299Z,11.29
2019-02-20T10:54:30.374Z,11.27
2019-02-20T10:55:38.401Z,11.35
2019-02-20T10:56:46.486Z,11.33
2019-02-20T10:57:54.531Z,11.42
2019-02-20T10:59:02.612Z,11.47
2019-02-20T11:00:10.663Z,11.42
2019-02-20T11:01:18.711Z,11.52
2019-02-20T11:02:26.787Z,11.43
2019-02-20T11:03:34.841Z,11.37
2019-02-20T11:04:42.908Z,11.47
2019-02-20T11:05:50.957Z,11.58
2019-02-20T11:06:59.016Z,11.58
2019-02-20T11:08:07.096Z,11.60
2019-02-20T11:09:15.153Z,11.52
2019-02-20T11:10:24.067Z,11.47
2019-02-20T11:11:31.243Z,11.57
2019-02-20T11:12:39.303Z,11.51
2019-02-20T11:13:47.361Z,11.54
2019-02-20T11:14:55.505Z,11.67
2019-02-20T11:16:03.494Z,11.64
2019-02-20T11:17:11.564Z,11.60
2019-02-20T11:18:19.619Z,11.70
2019-02-20T11:19:27.714Z,11.78
2019-02-20T11:20:35.748Z,11.86
2019-02-20T11:21:43.802Z,12.02
2019-02-20T11:22:51.887Z,12.19
2019-02-20T11:24:01.166Z,12.39
2019-02-20T11:25:08.049Z,12.41
2019-02-20T11:26:18.419Z,12.52
2019-02-20T11:27:24.093Z,12.52
2019-02-20T11:28:32.159Z,12.52
2019-02-20T11:29:40.235Z,12.57
2019-02-20T11:30:48.330Z,12.79
2019-02-20T11:31:56.589Z,12.85
2019-02-20T11:33:04.402Z,12.93
2019-02-20T11:34:12.449Z,12.95
2019-02-20T11:35:20.534Z,13.01
2019-02-20T11:36:28.601Z,12.92
2019-02-20T11:37:36.684Z,13.00
2019-02-20T11:38:44.708Z,13.08
2019-02-20T11:39:54.023Z,13.38
2019-02-20T11:41:00.866Z,13.54
2019-02-20T11:42:08.911Z,13.60
2019-02-20T11:43:16.960Z,13.66
2019-02-20T11:44:25.026Z,13.70
2019-02-20T11:45:33.094Z,13.82
2019-02-20T11:46:41.158Z,13.77
2019-02-20T11:47:49.198Z,13.84
2019-02-20T11:48:57.292Z,13.88
2019-02-20T11:50:05.376Z,13.92
2019-02-20T11:51:13.435Z,13.84
2019-02-20T11:52:21.499Z,13.82
2019-02-20T11:53:36.973Z,13.85
2019-02-20T11:54:37.633Z,13.70
2019-02-20T11:55:45.715Z,13.54
2019-02-20T11:56:53.848Z,13.26
2019-02-20T11:58:01.765Z,13.22
2019-02-20T11:59:09.886Z,13.11
2019-02-20T12:00:17.926Z,13.12
2019-02-20T12:01:25.994Z,13.03
2019-02-20T12:02:37.428Z,13.14
2019-02-20T12:03:42.129Z,13.15
2019-02-20T12:04:50.196Z,13.17
2019-02-20T12:05:58.265Z,13.20
2019-02-20T12:07:06.320Z,13.22
2019-02-20T12:08:14.362Z,13.20
2019-02-20T12:09:22.455Z,13.29
2019-02-20T12:10:30.538Z,13.19
2019-02-20T12:11:38.560Z,13.07
2019-02-20T12:12:46.646Z,13.11
2019-02-20T12:13:54.678Z,13.01
2019-02-20T12:15:02.738Z,13.03
2019-02-20T12:16:10.806Z,13.01
2019-02-20T12:17:18.862Z,12.85
2019-02-20T12:18:26.975Z,12.70
2019-02-20T12:19:34.986Z,12.82
2019-02-20T12:20:43.063Z,12.60
2019-02-20T12:21:51.123Z,12.52
2019-02-20T12:22:59.194Z,12.52
2019-02-20T12:24:07.249Z,12.54
2019-02-20T12:25:15.305Z,12.47
2019-02-20T12:26:24.061Z,12.39
2019-02-20T12:27:33.067Z,12.28
2019-02-20T12:28:39.501Z,12.31
2019-02-20T12:29:47.543Z,12.27
2019-02-20T12:30:55.616Z,12.10
2019-02-20T12:32:03.701Z,12.13
2019-02-20T12:33:11.775Z,12.14
2019-02-20T12:34:19.856Z,12.27
2019-02-20T12:35:27.891Z,12.28
2019-02-20T12:36:35.950Z,12.28
2019-02-20T12:37:44.013Z,12.29
2019-02-20T12:38:52.092Z,12.21
2019-02-20T12:40:00.106Z,12.23
2019-02-20T12:41:08.229Z,12.17
2019-02-20T12:42:16.218Z,12.20
2019-02-20T12:43:24.300Z,12.23
2019-02-20T12:44:32.369Z,12.13
2019-02-20T12:45:40.423Z,12.13
2019-02-20T12:46:48.480Z,12.13
2019-02-20T12:47:56.579Z,12.17
2019-02-20T12:49:04.598Z,12.20
2019-02-20T12:50:12.663Z,12.17
2019-02-20T12:51:20.730Z,12.13
2019-02-20T12:52:28.870Z,12.09
2019-02-20T12:53:36.861Z,12.07
2019-02-20T12:54:44.960Z,12.04
2019-02-20T12:55:53.105Z,11.99
2019-02-20T12:57:01.077Z,12.07
2019-02-20T12:58:09.089Z,12.01
2019-02-20T12:59:17.168Z,12.09
2019-02-20T13:00:25.216Z,12.02
2019-02-20T13:01:33.334Z,11.86
2019-02-20T13:02:41.343Z,11.88
2019-02-20T13:03:49.410Z,11.80
2019-02-20T13:04:57.493Z,11.85
2019-02-20T13:06:05.515Z,11.78
2019-02-20T13:07:13.600Z,11.76
2019-02-20T13:08:21.650Z,11.76
2019-02-20T13:09:29.712Z,11.75
2019-02-20T13:10:37.759Z,11.80
2019-02-20T13:11:45.855Z,11.94
2019-02-20T13:12:53.925Z,11.90
2019-02-20T13:14:01.960Z,11.99
2019-02-20T13:15:10.041Z,11.95
2019-02-20T13:16:18.080Z,12.09
2019-02-20T13:17:26.145Z,12.20
2019-02-20T13:18:34.240Z,12.29
2019-02-20T13:19:42.286Z,12.28
2019-02-20T13:20:50.346Z,12.34
2019-02-20T13:21:58.383Z,12.38
2019-02-20T13:23:06.491Z,12.39
2019-02-20T13:24:14.512Z,12.23
2019-02-20T13:25:22.580Z,12.21
2019-02-20T13:26:30.615Z,12.12
2019-02-20T13:27:40.096Z,12.09
2019-02-20T13:28:46.802Z,12.07
2019-02-20T13:29:54.817Z,12.01
2019-02-20T13:31:02.883Z,12.09
2019-02-20T13:32:10.935Z,12.16
2019-02-20T13:33:19.003Z,12.20
2019-02-20T13:34:27.116Z,12.16
2019-02-20T13:35:35.120Z,12.17
2019-02-20T13:36:43.192Z,11.99
2019-02-20T13:37:51.254Z,11.95
2019-02-20T13:38:59.308Z,11.95
2019-02-20T13:40:07.371Z,11.99
2019-02-20T13:41:15.438Z,12.05
2019-02-20T13:42:23.492Z,12.12
2019-02-20T13:43:31.570Z,12.05
2019-02-20T13:44:39.631Z,12.16
2019-02-20T13:45:47.695Z,12.10
2019-02-20T13:46:55.783Z,12.07
2019-02-20T13:48:03.860Z,12.07
2019-02-20T13:49:11.861Z,12.13
2019-02-20T13:50:19.940Z,12.21
2019-02-20T13:51:28.027Z,12.09
2019-02-20T13:52:36.055Z,12.10
2019-02-20T13:53:46.341Z,12.09
2019-02-20T13:54:52.170Z,12.09
2019-02-20T13:56:00.217Z,11.95
2019-02-20T13:57:08.296Z,11.85
2019-02-20T13:58:17.672Z,11.91
2019-02-20T13:59:24.425Z,11.80
2019-02-20T14:00:32.510Z,11.79
2019-02-20T14:01:40.531Z,11.86
2019-02-20T14:02:48.619Z,11.91
2019-02-20T14:03:56.659Z,11.90
2019-02-20T14:05:04.719Z,11.83
2019-02-20T14:06:12.840Z,11.88
2019-02-20T14:07:20.871Z,11.90
2019-02-20T14:08:28.906Z,11.95
2019-02-20T14:09:36.976Z,11.91
2019-02-20T14:10:45.017Z,12.09
2019-02-20T14:11:53.093Z,12.02
2019-02-20T14:13:01.189Z,12.13
2019-02-20T14:14:09.216Z,12.20
2019-02-20T14:15:17.582Z,12.28
2019-02-20T14:16:25.339Z,12.28
2019-02-20T14:17:33.406Z,12.42
2019-02-20T14:18:41.479Z,12.52
2019-02-20T14:19:49.508Z,12.56
2019-02-20T14:20:57.631Z,12.54
2019-02-20T14:22:05.688Z,12.56
2019-02-20T14:23:13.693Z,12.57
2019-02-20T14:24:21.801Z,12.38
2019-02-20T14:25:29.877Z,12.29
2019-02-20T14:26:37.924Z,12.42
2019-02-20T14:27:45.996Z,12.54
2019-02-20T14:28:54.033Z,12.67
2019-02-20T14:30:02.075Z,12.79
2019-02-20T14:31:10.185Z,12.86
2019-02-20T14:32:18.229Z,12.97
2019-02-20T14:33:26.286Z,13.07
2019-02-20T14:34:34.331Z,13.19
2019-02-20T14:35:42.439Z,13.32
2019-02-20T14:36:50.479Z,13.41
2019-02-20T14:37:58.510Z,13.44
2019-02-20T14:39:06.600Z,13.55
2019-02-20T14:40:14.625Z,13.55
2019-02-20T14:41:22.724Z,13.62
2019-02-20T14:42:30.793Z,13.73
2019-02-20T14:43:38.848Z,13.71
2019-02-20T14:44:46.866Z,13.67
2019-02-20T14:45:54.970Z,13.63
2019-02-20T14:47:03.099Z,13.66
2019-02-20T14:48:11.073Z,13.70
2019-02-20T14:49:19.147Z,13.64
2019-02-20T14:50:27.248Z,13.69
2019-02-20T14:51:35.272Z,13.73
2019-02-20T14:52:43.326Z,13.67
2019-02-20T14:53:51.399Z,13.51
2019-02-20T14:54:59.456Z,13.46